createdAt,value
2023-02-09T00:01:30.896Z,103005.66
2023-02-09T00:04:00.027Z,102998.63
2023-02-09T00:06:30.001Z,102995.16
2023-02-09T00:08:58.550Z,102993.69
2023-02-09T00:11:49.103Z,102987.88
2023-02-09T00:14:21.608Z,102992.19
2023-02-09T00:16:50.763Z,102988.00
2023-02-09T00:19:19.476Z,103003.03
2023-02-09T00:21:48.998Z,102993.06
2023-02-09T00:24:16.691Z,102981.06
2023-02-09T00:26:44.917Z,103001.00
2023-02-09T00:29:13.246Z,102981.81
2023-02-09T00:31:40.836Z,102985.63
2023-02-09T00:34:08.420Z,102975.22
2023-02-09T00:36:35.757Z,102990.25
2023-02-09T00:39:03.340Z,102984.44
2023-02-09T00:41:49.378Z,102978.53
2023-02-09T00:44:16.886Z,102981.06
2023-02-09T00:46:44.293Z,102984.81
2023-02-09T00:49:11.749Z,102972.94
2023-02-09T00:51:39.125Z,102972.94
2023-02-09T00:54:06.543Z,102988.50
2023-02-09T00:56:33.923Z,102979.97
2023-02-09T00:59:01.369Z,102976.31
2023-02-09T01:01:28.808Z,102965.97
2023-02-09T01:03:56.542Z,102974.19
2023-02-09T01:06:23.956Z,102978.00
2023-02-09T01:08:51.345Z,102959.69
2023-02-09T01:11:19.374Z,102984.13
2023-02-09T01:13:47.542Z,102977.75
2023-02-09T01:16:18.333Z,102959.38
2023-02-09T01:18:45.764Z,102969.50
2023-02-09T01:21:20.029Z,102960.22
2023-02-09T01:23:48.567Z,102960.56
2023-02-09T01:26:18.162Z,102958.03
2023-02-09T01:28:50.532Z,102970.72
2023-02-09T01:31:27.295Z,102973.28
2023-02-09T01:33:57.145Z,102974.09
2023-02-09T01:36:28.333Z,102958.88
2023-02-09T01:38:57.425Z,102978.53
2023-02-09T01:41:25.517Z,102977.63
2023-02-09T01:43:54.687Z,102959.47
2023-02-09T01:46:24.195Z,102969.38
2023-02-09T01:48:56.889Z,102964.13
2023-02-09T01:51:25.992Z,102965.09
2023-02-09T01:53:53.648Z,102943.69
2023-02-09T01:56:28.745Z,102958.34
2023-02-09T01:58:56.748Z,102936.97
2023-02-09T02:01:25.263Z,102933.31
2023-02-09T02:03:54.283Z,102944.03
2023-02-09T02:06:22.012Z,102941.47
2023-02-09T02:08:58.727Z,102947.94
2023-02-09T02:11:29.903Z,102939.25
2023-02-09T02:13:57.492Z,102932.88
2023-02-09T02:16:55.581Z,102937.38
2023-02-09T02:20:01.679Z,102932.63
2023-02-09T02:22:40.226Z,102937.50
2023-02-09T02:25:28.961Z,102919.78
2023-02-09T02:28:22.549Z,102919.91
2023-02-09T02:31:11.689Z,102898.78
2023-02-09T02:33:45.190Z,102912.34
2023-02-09T02:36:31.767Z,102907.25
2023-02-09T02:39:31.745Z,102910.69
2023-02-09T02:42:27.315Z,102900.00
2023-02-09T02:45:13.764Z,102900.91
2023-02-09T02:47:50.812Z,102896.44
2023-02-09T02:50:22.841Z,102883.25
2023-02-09T02:52:56.520Z,102894.06
2023-02-09T02:55:28.762Z,102892.84
2023-02-09T02:58:00.332Z,102874.66
2023-02-09T03:00:32.997Z,102887.59
2023-02-09T03:03:05.720Z,102886.50
2023-02-09T03:05:33.520Z,102896.19
2023-02-09T03:08:00.914Z,102889.59
2023-02-09T03:10:37.436Z,102876.09
2023-02-09T03:13:08.556Z,102888.97
2023-02-09T03:15:38.843Z,102879.31
2023-02-09T03:18:12.046Z,102873.16
2023-02-09T03:20:51.103Z,102891.38
2023-02-09T03:23:47.791Z,102877.44
2023-02-09T03:26:22.404Z,102879.88
2023-02-09T03:28:55.940Z,102884.47
2023-02-09T03:31:24.843Z,102866.06
2023-02-09T03:33:52.499Z,102857.75
2023-02-09T03:36:20.893Z,102876.88
2023-02-09T03:38:48.190Z,102878.78
2023-02-09T03:41:15.556Z,102861.97
2023-02-09T03:44:01.566Z,102872.66
2023-02-09T03:46:29.012Z,102872.28
2023-02-09T03:48:56.558Z,102874.84
2023-02-09T03:51:24.244Z,102872.28
2023-02-09T03:53:51.921Z,102875.81
2023-02-09T03:56:19.274Z,102868.03
2023-02-09T03:58:46.623Z,102860.63
2023-02-09T04:01:14.166Z,102869.59
2023-02-09T04:03:41.903Z,102870.13
2023-02-09T04:06:12.535Z,102874.84
2023-02-09T04:08:40.120Z,102884.88
2023-02-09T04:11:07.491Z,102870.22
2023-02-09T04:13:35.393Z,102886.69
2023-02-09T04:16:02.966Z,102878.47
2023-02-09T04:18:30.390Z,102882.25
2023-02-09T04:20:57.897Z,102874.13
2023-02-09T04:23:25.217Z,102869.75
2023-02-09T04:25:52.751Z,102875.84
2023-02-09T04:28:20.486Z,102873.22
2023-02-09T04:30:57.101Z,102881.88
2023-02-09T04:33:25.552Z,102873.88
2023-02-09T04:35:53.158Z,102878.28
2023-02-09T04:38:21.680Z,102868.19
2023-02-09T04:40:50.931Z,102874.78
2023-02-09T04:43:18.640Z,102869.75
2023-02-09T04:45:46.611Z,102867.41
2023-02-09T04:48:16.416Z,102864.97
2023-02-09T04:50:44.307Z,102874.19
2023-02-09T04:53:12.660Z,102861.72
2023-02-09T04:55:42.251Z,102867.06
2023-02-09T04:58:30.092Z,102863.53
2023-02-09T05:00:58.045Z,102875.16
2023-02-09T05:03:26.293Z,102867.50
2023-02-09T05:05:58.165Z,102867.97
2023-02-09T05:08:26.006Z,102864.53
2023-02-09T05:10:54.404Z,102865.56
2023-02-09T05:13:23.948Z,102870.13
2023-02-09T05:15:51.497Z,102870.94
2023-02-09T05:18:19.002Z,102878.28
2023-02-09T05:20:47.812Z,102871.25
2023-02-09T05:23:16.276Z,102875.91
2023-02-09T05:25:45.783Z,102864.22
2023-02-09T05:28:13.176Z,102872.53
2023-02-09T05:30:40.587Z,102862.16
2023-02-09T05:33:07.950Z,102876.09
2023-02-09T05:35:35.792Z,102869.66
2023-02-09T05:38:03.186Z,102871.44
2023-02-09T05:40:30.713Z,102857.53
2023-02-09T05:42:59.672Z,102865.56
2023-02-09T05:45:27.133Z,102882.88
2023-02-09T05:47:54.651Z,102884.63
2023-02-09T05:50:22.165Z,102885.41
2023-02-09T05:52:49.556Z,102879.31
2023-02-09T05:55:17.086Z,102863.38
2023-02-09T05:57:44.488Z,102885.50
2023-02-09T06:00:12.653Z,102875.09
2023-02-09T06:02:40.155Z,102850.78
2023-02-09T06:05:08.224Z,102887.78
2023-02-09T06:07:35.866Z,102873.72
2023-02-09T06:10:04.445Z,102867.78
2023-02-09T06:12:31.787Z,102860.94
2023-02-09T06:14:59.116Z,102880.22
2023-02-09T06:17:26.561Z,102860.00
2023-02-09T06:19:53.894Z,102848.19
2023-02-09T06:22:21.245Z,102860.22
2023-02-09T06:24:48.602Z,102880.22
2023-02-09T06:27:15.999Z,102871.75
2023-02-09T06:29:43.419Z,102857.06
2023-02-09T06:32:10.934Z,102869.16
2023-02-09T06:34:38.315Z,102883.88
2023-02-09T06:37:05.897Z,102880.94
2023-02-09T06:39:33.266Z,102884.25
2023-02-09T06:42:00.719Z,102874.06
2023-02-09T06:44:28.220Z,102895.59
2023-02-09T06:46:55.819Z,102887.63
2023-02-09T06:49:25.279Z,102902.75
2023-02-09T06:51:52.965Z,102891.56
2023-02-09T06:54:20.725Z,102883.84
2023-02-09T06:56:48.181Z,102892.59
2023-02-09T06:59:15.588Z,102904.38
2023-02-09T07:01:42.985Z,102902.66
2023-02-09T07:04:10.401Z,102903.41
2023-02-09T07:06:37.722Z,102908.72
2023-02-09T07:09:05.208Z,102918.44
2023-02-09T07:11:32.652Z,102916.88
2023-02-09T07:14:00.111Z,102921.34
2023-02-09T07:16:27.681Z,102917.22
2023-02-09T07:18:55.227Z,102921.56
2023-02-09T07:21:22.693Z,102919.56
2023-02-09T07:23:50.079Z,102907.19
2023-02-09T07:26:18.797Z,102910.47
2023-02-09T07:28:46.180Z,102905.56
2023-02-09T07:31:16.062Z,102922.03
2023-02-09T07:33:43.683Z,102923.28
2023-02-09T07:36:14.275Z,102932.75
2023-02-09T07:38:41.869Z,102938.44
2023-02-09T07:41:15.360Z,102934.84
2023-02-09T07:43:43.226Z,102939.41
2023-02-09T07:46:13.693Z,102939.41
2023-02-09T07:48:41.244Z,102937.09
2023-02-09T07:51:20.832Z,102941.91
2023-02-09T07:53:48.242Z,102942.19
2023-02-09T07:56:15.618Z,102949.91
2023-02-09T07:58:43.018Z,102946.78
2023-02-09T08:01:12.346Z,102945.97
2023-02-09T08:03:42.485Z,102943.09
2023-02-09T08:06:41.562Z,102949.31
2023-02-09T08:09:11.890Z,102941.34
2023-02-09T08:12:02.693Z,102940.63
2023-02-09T08:14:36.879Z,102936.53
2023-02-09T08:17:20.083Z,102929.75
2023-02-09T08:19:55.636Z,102933.00
2023-02-09T08:22:24.943Z,102946.34
2023-02-09T08:24:52.967Z,102932.88
2023-02-09T08:27:20.627Z,102931.88
2023-02-09T08:29:49.111Z,102938.41
2023-02-09T08:32:16.612Z,102932.38
2023-02-09T08:34:43.993Z,102936.38
2023-02-09T08:37:11.389Z,102940.22
2023-02-09T08:39:38.708Z,102933.16
2023-02-09T08:42:06.221Z,102940.25
2023-02-09T08:44:33.591Z,102945.97
2023-02-09T08:47:01.316Z,102935.38
2023-02-09T08:49:29.048Z,102948.31
2023-02-09T08:51:56.407Z,102936.72
2023-02-09T08:54:24.236Z,102939.78
2023-02-09T08:56:51.579Z,102945.59
2023-02-09T08:59:20.162Z,102956.25
2023-02-09T09:01:48.096Z,102956.00
2023-02-09T09:04:17.806Z,102959.09
2023-02-09T09:06:45.212Z,102949.41
2023-02-09T09:09:12.622Z,102967.00
2023-02-09T09:11:40.280Z,102962.19
2023-02-09T09:14:07.950Z,102951.97
2023-02-09T09:16:35.627Z,102963.13
2023-02-09T09:19:04.384Z,102968.50
2023-02-09T09:21:31.780Z,102963.53
2023-02-09T09:23:59.202Z,102960.72
2023-02-09T09:26:26.548Z,102950.59
2023-02-09T09:28:53.885Z,102949.34
2023-02-09T09:31:21.369Z,102953.31
2023-02-09T09:33:48.789Z,102951.69
2023-02-09T09:36:16.186Z,102962.88
2023-02-09T09:38:43.991Z,102950.72
2023-02-09T09:41:38.094Z,102959.50
2023-02-09T09:44:27.771Z,102957.22
2023-02-09T09:47:01.104Z,102964.16
2023-02-09T09:49:30.115Z,102974.34
2023-02-09T09:52:04.927Z,102973.19
2023-02-09T09:54:34.638Z,102960.94
2023-02-09T09:57:02.678Z,102967.44
2023-02-09T09:59:38.799Z,102967.41
2023-02-09T10:02:33.181Z,102968.97
2023-02-09T10:05:19.217Z,102970.25
2023-02-09T10:07:58.698Z,102967.47
2023-02-09T10:10:38.860Z,102980.47
2023-02-09T10:13:25.695Z,102970.38
2023-02-09T10:15:55.422Z,102978.09
2023-02-09T10:18:25.509Z,102966.59
2023-02-09T10:20:54.262Z,102968.06
2023-02-09T10:26:40.761Z,102967.81
2023-02-09T10:29:11.095Z,102959.72
2023-02-09T10:31:43.561Z,102957.72
2023-02-09T10:34:15.124Z,102957.50
2023-02-09T10:36:52.309Z,102962.41
2023-02-09T10:39:24.101Z,102946.44
2023-02-09T10:41:54.495Z,102956.66
2023-02-09T10:44:33.905Z,102944.03
2023-02-09T10:47:28.078Z,102955.97
2023-02-09T10:50:01.541Z,102921.66
2023-02-09T10:52:35.685Z,102934.13
2023-02-09T10:55:15.035Z,102920.06
2023-02-09T10:57:42.466Z,102922.19
2023-02-09T11:00:15.542Z,102921.66
2023-02-09T11:02:53.054Z,102915.59
2023-02-09T11:05:21.451Z,102924.38
2023-02-09T11:08:01.973Z,102921.88
2023-02-09T11:10:32.131Z,102906.88
2023-02-09T11:13:00.122Z,102899.13
2023-02-09T11:15:33.092Z,102895.13
2023-02-09T11:18:15.706Z,102886.50
2023-02-09T11:20:55.567Z,102901.38
2023-02-09T11:23:28.967Z,102883.03
2023-02-09T11:26:04.199Z,102886.22
2023-02-09T11:29:16.844Z,102888.47
2023-02-09T11:32:04.252Z,102869.44
2023-02-09T11:34:43.351Z,102879.16
2023-02-09T11:37:16.543Z,102878.47
2023-02-09T11:40:20.752Z,102879.44
2023-02-09T11:42:59.370Z,102875.91
2023-02-09T11:45:36.788Z,102870.00
2023-02-09T11:48:25.050Z,102868.59
2023-02-09T11:51:04.797Z,102864.75
2023-02-09T11:53:56.855Z,102851.44
2023-02-09T11:56:25.750Z,102851.63
2023-02-09T11:59:18.977Z,102860.44
2023-02-09T12:02:19.170Z,102848.41
2023-02-09T12:04:57.364Z,102841.13
2023-02-09T12:07:57.677Z,102833.75
2023-02-09T12:11:04.146Z,102829.97
2023-02-09T12:13:39.474Z,102837.88
2023-02-09T12:16:18.571Z,102827.97
2023-02-09T12:18:46.444Z,102831.41
2023-02-09T12:21:26.005Z,102826.44
2023-02-09T12:26:58.073Z,102815.59
2023-02-09T12:29:40.155Z,102818.53
2023-02-09T12:32:08.075Z,102804.53
2023-02-09T12:34:35.413Z,102807.56
2023-02-09T12:37:14.776Z,102807.72
2023-02-09T12:40:06.926Z,102804.88
2023-02-09T12:43:09.780Z,102797.97
2023-02-09T12:45:39.851Z,102782.50
2023-02-09T12:48:07.222Z,102793.75
2023-02-09T12:50:55.637Z,102787.13
2023-02-09T12:53:22.915Z,102783.97
2023-02-09T12:56:11.378Z,102791.59
2023-02-09T12:58:39.960Z,102780.72
2023-02-09T13:01:08.388Z,102787.88
2023-02-09T13:03:51.373Z,102783.31
2023-02-09T13:06:43.918Z,102775.28
2023-02-09T13:09:22.490Z,102778.53
2023-02-09T13:11:55.679Z,102776.22
2023-02-09T13:14:24.537Z,102782.63
2023-02-09T13:17:24.065Z,102777.34
2023-02-09T13:20:22.373Z,102777.88
2023-02-09T13:23:01.473Z,102773.38
2023-02-09T13:25:36.465Z,102767.03
2023-02-09T13:28:26.742Z,102768.88
2023-02-09T13:30:54.192Z,102777.91
2023-02-09T13:33:40.248Z,102778.97
2023-02-09T13:36:16.275Z,102767.34
2023-02-09T13:38:47.150Z,102769.56
2023-02-09T13:41:37.831Z,102764.97
2023-02-09T13:44:19.630Z,102762.97
2023-02-09T13:46:58.831Z,102762.69
2023-02-09T13:49:28.952Z,102764.88
2023-02-09T13:52:12.768Z,102766.03
2023-02-09T13:54:41.247Z,102764.06
2023-02-09T13:57:11.707Z,102764.44
2023-02-09T13:59:43.611Z,102764.56
2023-02-09T14:02:22.847Z,102764.03
2023-02-09T14:04:56.281Z,102769.00
2023-02-09T14:07:27.582Z,102768.03
2023-02-09T14:10:01.879Z,102761.97
2023-02-09T14:12:55.884Z,102758.41
2023-02-09T14:15:56.656Z,102755.50
2023-02-09T14:18:34.046Z,102760.31
2023-02-09T14:21:11.710Z,102763.31
2023-02-09T14:23:40.601Z,102766.34
2023-02-09T14:26:21.083Z,102763.78
2023-02-09T14:29:03.637Z,102753.78
2023-02-09T14:31:35.202Z,102757.47
2023-02-09T14:34:02.622Z,102760.72
2023-02-09T14:36:32.428Z,102759.47
2023-02-09T14:39:16.996Z,102754.19
2023-02-09T14:42:02.715Z,102757.56
2023-02-09T14:44:30.654Z,102747.38
2023-02-09T14:47:01.650Z,102753.47
2023-02-09T14:49:29.586Z,102742.97
2023-02-09T14:52:13.089Z,102751.34
2023-02-09T14:54:48.297Z,102743.53
2023-02-09T14:57:15.755Z,102744.56
2023-02-09T14:59:43.034Z,102741.38
2023-02-09T15:02:19.192Z,102749.13
2023-02-09T15:04:47.147Z,102738.69
2023-02-09T15:07:20.556Z,102744.84
2023-02-09T15:09:49.286Z,102745.91
2023-02-09T15:12:23.542Z,102744.03
2023-02-09T15:14:53.349Z,102737.19
2023-02-09T15:17:25.526Z,102741.78
2023-02-09T15:19:52.884Z,102745.94
2023-02-09T15:22:22.067Z,102744.97
2023-02-09T15:24:52.283Z,102744.28
2023-02-09T15:27:27.721Z,102745.94
2023-02-09T15:29:58.949Z,102740.94
2023-02-09T15:32:27.761Z,102739.97
2023-02-09T15:34:55.147Z,102739.09
2023-02-09T15:37:34.644Z,102745.16
2023-02-09T15:40:43.937Z,102743.75
2023-02-09T15:43:51.597Z,102752.88
2023-02-09T15:46:37.795Z,102757.00
2023-02-09T15:49:05.721Z,102748.19
2023-02-09T15:51:36.675Z,102754.47
2023-02-09T15:54:11.721Z,102751.56
2023-02-09T15:56:39.429Z,102754.19
2023-02-09T15:59:06.818Z,102749.66
2023-02-09T16:01:34.631Z,102757.34
2023-02-09T16:04:14.030Z,102754.88
2023-02-09T16:06:48.426Z,102751.47
2023-02-09T16:09:22.656Z,102753.09
2023-02-09T16:11:50.331Z,102759.00
2023-02-09T16:14:24.462Z,102753.41
2023-02-09T16:16:52.474Z,102758.31
2023-02-09T16:19:21.448Z,102754.13
2023-02-09T16:21:56.416Z,102766.34
2023-02-09T16:25:00.544Z,102742.06
2023-02-09T16:27:29.118Z,102763.44
2023-02-09T16:29:58.121Z,102767.66
2023-02-09T16:32:26.973Z,102764.03
2023-02-09T16:35:07.336Z,102762.00
2023-02-09T16:37:43.609Z,102769.91
2023-02-09T16:40:18.843Z,102769.91
2023-02-09T16:42:48.503Z,102765.47
2023-02-09T16:45:17.207Z,102771.69
2023-02-09T16:47:50.284Z,102766.75
2023-02-09T16:50:28.811Z,102762.47
2023-02-09T16:52:56.718Z,102768.41
2023-02-09T16:55:29.949Z,102768.19
2023-02-09T16:58:17.796Z,102776.78
2023-02-09T17:00:45.689Z,102778.28
2023-02-09T17:03:17.146Z,102768.44
2023-02-09T17:05:50.533Z,102771.91
2023-02-09T17:08:21.514Z,102777.13
2023-02-09T17:10:51.121Z,102778.03
2023-02-09T17:13:21.987Z,102778.81
2023-02-09T17:15:52.094Z,102779.72
2023-02-09T17:18:22.501Z,102779.59
2023-02-09T17:20:53.684Z,102788.47
2023-02-09T17:23:23.595Z,102789.28
2023-02-09T17:25:54.923Z,102790.69
2023-02-09T17:28:24.398Z,102799.38
2023-02-09T17:30:56.590Z,102795.88
2023-02-09T17:33:35.701Z,102799.16
2023-02-09T17:36:25.231Z,102792.97
2023-02-09T17:38:51.575Z,102782.97
2023-02-09T17:41:45.343Z,102795.41
2023-02-09T17:44:43.648Z,102785.38
2023-02-09T17:47:17.401Z,102788.47
2023-02-09T17:49:45.045Z,102781.47
2023-02-09T17:52:20.890Z,102800.72
2023-02-09T17:54:49.442Z,102799.56
2023-02-09T17:57:17.467Z,102801.41
2023-02-09T17:59:46.054Z,102805.69
2023-02-09T18:02:19.752Z,102806.72
2023-02-09T18:04:47.602Z,102815.09
2023-02-09T18:07:20.449Z,102807.19
2023-02-09T18:09:48.020Z,102814.03
2023-02-09T18:12:21.423Z,102824.66
2023-02-09T18:14:48.857Z,102827.47
2023-02-09T18:17:16.698Z,102815.03
2023-02-09T18:19:44.048Z,102824.88
2023-02-09T18:22:19.997Z,102829.88
2023-02-09T18:24:47.551Z,102824.34
2023-02-09T18:27:17.544Z,102832.22
2023-02-09T18:29:44.952Z,102832.81
2023-02-09T18:32:15.975Z,102836.09
2023-02-09T18:34:43.341Z,102829.22
2023-02-09T18:37:10.745Z,102846.28
2023-02-09T18:39:45.891Z,102844.44
2023-02-09T18:42:15.550Z,102841.75
2023-02-09T18:44:43.130Z,102847.50
2023-02-09T18:47:11.181Z,102839.44
2023-02-09T18:49:39.231Z,102837.97
2023-02-09T18:52:08.471Z,102835.44
2023-02-09T18:54:35.951Z,102832.19
2023-02-09T18:57:03.358Z,102848.00
2023-02-09T18:59:34.348Z,102861.03
2023-02-09T19:02:02.631Z,102859.25
2023-02-09T19:04:30.042Z,102855.28
2023-02-09T19:06:57.488Z,102856.88
2023-02-09T19:09:24.968Z,102854.78
2023-02-09T19:11:52.291Z,102855.50
2023-02-09T19:14:37.581Z,102859.31
2023-02-09T19:17:07.545Z,102856.72
2023-02-09T19:19:35.093Z,102858.31
2023-02-09T19:22:02.488Z,102861.78
2023-02-09T19:24:29.936Z,102861.94
2023-02-09T19:26:57.331Z,102871.38
2023-02-09T19:29:28.952Z,102866.00
2023-02-09T19:31:56.305Z,102865.78
2023-02-09T19:34:23.726Z,102867.94
2023-02-09T19:36:51.039Z,102870.81
2023-02-09T19:39:19.304Z,102869.31
2023-02-09T19:41:49.012Z,102874.72
2023-02-09T19:44:16.418Z,102871.88
2023-02-09T19:46:43.946Z,102861.44
2023-02-09T19:49:11.313Z,102878.53
2023-02-09T19:51:38.582Z,102880.06
2023-02-09T19:54:05.946Z,102877.16
2023-02-09T19:56:34.328Z,102882.88
2023-02-09T19:59:01.717Z,102878.88
2023-02-09T20:01:31.346Z,102881.25
2023-02-09T20:03:58.970Z,102876.66
2023-02-09T20:06:26.505Z,102879.38
2023-02-09T20:08:53.898Z,102885.91
2023-02-09T20:11:21.451Z,102887.16
2023-02-09T20:13:51.759Z,102879.84
2023-02-09T20:16:26.003Z,102879.63
2023-02-09T20:18:54.188Z,102883.44
2023-02-09T20:21:23.103Z,102885.38
2023-02-09T20:23:54.244Z,102888.34
2023-02-09T20:26:26.806Z,102875.88
2023-02-09T20:28:56.335Z,102885.88
2023-02-09T20:31:29.595Z,102873.59
2023-02-09T20:33:56.991Z,102883.06
2023-02-09T20:36:25.622Z,102885.19
2023-02-09T20:38:53.191Z,102874.06
2023-02-09T20:41:20.908Z,102887.16
2023-02-09T20:44:06.881Z,102879.34
2023-02-09T20:46:40.520Z,102887.19
2023-02-09T20:49:10.106Z,102892.94
2023-02-09T20:51:37.879Z,102882.63
2023-02-09T20:54:06.019Z,102880.44
2023-02-09T20:56:33.427Z,102873.94
2023-02-09T20:59:00.753Z,102890.78
2023-02-09T21:01:28.495Z,102884.78
2023-02-09T21:03:58.983Z,102878.34
2023-02-09T21:06:27.269Z,102874.88
2023-02-09T21:08:54.911Z,102879.38
2023-02-09T21:11:22.369Z,102883.19
2023-02-09T21:13:49.944Z,102887.53
2023-02-09T21:16:17.461Z,102878.78
2023-02-09T21:18:45.824Z,102875.78
2023-02-09T21:21:19.173Z,102869.59
2023-02-09T21:23:46.773Z,102882.31
2023-02-09T21:26:17.349Z,102880.53
2023-02-09T21:28:45.399Z,102880.16
2023-02-09T21:31:17.926Z,102877.47
2023-02-09T21:33:45.320Z,102877.63
2023-02-09T21:36:15.686Z,102881.75
2023-02-09T21:38:43.011Z,102877.97
2023-02-09T21:41:32.557Z,102885.31
2023-02-09T21:44:00.501Z,102893.72
2023-02-09T21:46:28.830Z,102880.19
2023-02-09T21:48:56.396Z,102873.66
2023-02-09T21:51:24.949Z,102865.69
2023-02-09T21:53:53.020Z,102867.72
2023-02-09T21:56:20.636Z,102869.84
2023-02-09T21:58:48.004Z,102868.19
2023-02-09T22:01:15.555Z,102874.94
2023-02-09T22:03:43.869Z,102860.75
2023-02-09T22:06:11.325Z,102858.22
2023-02-09T22:08:38.720Z,102863.44
2023-02-09T22:11:07.176Z,102872.72
2023-02-09T22:13:34.924Z,102857.56
2023-02-09T22:16:07.232Z,102864.81
2023-02-09T22:18:35.241Z,102869.22
2023-02-09T22:21:07.499Z,102870.41
2023-02-09T22:23:35.209Z,102860.31
2023-02-09T22:26:04.595Z,102869.06
2023-02-09T22:28:35.164Z,102882.59
2023-02-09T22:31:12.771Z,102878.75
2023-02-09T22:33:40.516Z,102881.38
2023-02-09T22:36:13.386Z,102858.94
2023-02-09T22:38:41.084Z,102873.34
2023-02-09T22:41:23.558Z,102872.50
2023-02-09T22:43:59.822Z,102862.78
2023-02-09T22:46:29.747Z,102870.31
2023-02-09T22:48:59.667Z,102869.84
2023-02-09T22:51:29.711Z,102872.03
2023-02-09T22:53:58.853Z,102876.47
2023-02-09T22:56:28.009Z,102862.34
2023-02-09T22:58:59.986Z,102864.16
2023-02-09T23:01:29.264Z,102861.78
2023-02-09T23:03:57.771Z,102853.78
2023-02-09T23:06:27.817Z,102854.66
2023-02-09T23:08:58.605Z,102848.44
2023-02-09T23:11:27.110Z,102850.47
2023-02-09T23:14:08.499Z,102839.31
2023-02-09T23:16:38.012Z,102833.47
2023-02-09T23:19:07.968Z,102849.25
2023-02-09T23:21:38.254Z,102833.72
2023-02-09T23:24:06.637Z,102846.66
2023-02-09T23:26:34.485Z,102842.78
2023-02-09T23:29:04.908Z,102844.22
2023-02-09T23:31:32.860Z,102838.72
2023-02-09T23:34:00.392Z,102837.81
2023-02-09T23:36:30.665Z,102846.63
2023-02-09T23:39:00.898Z,102838.56
2023-02-09T23:41:28.463Z,102839.00
2023-02-09T23:43:56.795Z,102832.50
2023-02-09T23:46:28.410Z,102829.84
2023-02-09T23:48:57.183Z,102835.22
2023-02-09T23:51:28.499Z,102832.88
2023-02-09T23:53:57.633Z,102831.75
2023-02-09T23:56:25.918Z,102833.19
2023-02-09T23:58:54.162Z,102824.38
